createdAt,value
2022-09-15T06:15:20.346Z,9.02
2022-09-15T06:17:47.433Z,8.77
2022-09-15T06:20:14.759Z,8.15
2022-09-15T06:22:41.979Z,7.22
2022-09-15T06:25:09.053Z,7.68
2022-09-15T06:27:35.835Z,7.22
2022-09-15T06:30:03.413Z,6.65
2022-09-15T06:32:30.387Z,7.18
2022-09-15T06:34:57.302Z,7.18
2022-09-15T06:37:24.213Z,6.38
2022-09-15T06:39:51.187Z,6.03
2022-09-15T06:42:17.953Z,5.30
2022-09-15T06:44:45.103Z,5.72
2022-09-15T06:47:15.379Z,5.40
2022-09-15T06:49:42.437Z,5.40
2022-09-15T06:52:09.212Z,4.65
2022-09-15T06:54:35.949Z,5.15
2022-09-15T06:57:02.791Z,5.53
2022-09-15T06:59:29.621Z,5.00
2022-09-15T07:01:57.522Z,5.43
2022-09-15T07:04:25.469Z,5.35
2022-09-15T07:06:52.349Z,4.63
2022-09-15T07:09:19.670Z,4.78
2022-09-15T07:11:46.506Z,4.60
2022-09-15T07:14:22.665Z,4.70
2022-09-15T07:16:49.506Z,4.07
2022-09-15T07:19:16.263Z,4.25
2022-09-15T07:21:43.062Z,4.38
2022-09-15T07:24:10.673Z,3.70
2022-09-15T07:26:38.408Z,4.05
2022-09-15T07:29:06.695Z,3.95
2022-09-15T07:31:35.637Z,4.53
2022-09-15T07:34:02.793Z,3.70
2022-09-15T07:36:30.973Z,3.85
2022-09-15T07:38:58.608Z,4.35
2022-09-15T07:41:28.158Z,3.75
2022-09-15T07:43:57.293Z,3.90
2022-09-15T07:46:25.530Z,4.15
2022-09-15T07:48:57.358Z,4.10
2022-09-15T07:51:25.362Z,3.78
2022-09-15T07:53:53.123Z,4.10
2022-09-15T07:56:20.587Z,3.90
2022-09-15T07:58:48.420Z,4.10
2022-09-15T08:01:17.716Z,3.97
2022-09-15T08:03:50.016Z,4.30
2022-09-15T08:06:19.284Z,3.60
2022-09-15T08:08:47.093Z,3.40
2022-09-15T08:11:19.206Z,3.72
2022-09-15T08:13:52.339Z,3.42
2022-09-15T08:16:22.910Z,3.67
2022-09-15T08:18:52.033Z,3.55
2022-09-15T08:21:20.998Z,3.95
2022-09-15T08:23:56.191Z,3.38
2022-09-15T08:26:23.967Z,3.00
2022-09-15T08:28:51.196Z,2.88
2022-09-15T08:31:18.283Z,2.60
2022-09-15T08:33:49.945Z,2.70
2022-09-15T08:36:17.886Z,2.65
2022-09-15T08:38:45.769Z,2.63
2022-09-15T08:41:33.960Z,2.75
2022-09-15T08:44:22.174Z,2.83
2022-09-15T08:47:04.410Z,2.85
2022-09-15T08:49:52.965Z,2.83
2022-09-15T08:52:42.467Z,2.85
2022-09-15T08:55:17.462Z,2.63
2022-09-15T08:57:45.104Z,3.10
2022-09-15T09:00:16.547Z,2.72
2022-09-15T09:02:43.484Z,3.05
2022-09-15T09:05:40.742Z,2.55
2022-09-15T09:08:45.914Z,2.45
2022-09-15T09:11:36.740Z,2.50
2022-09-15T09:14:19.433Z,2.40
2022-09-15T09:17:07.963Z,2.65
2022-09-15T09:20:13.852Z,2.42
2022-09-15T09:22:43.939Z,2.50
2022-09-15T09:25:26.674Z,2.22
2022-09-15T09:27:54.833Z,2.00
2022-09-15T09:30:23.482Z,2.40
2022-09-15T09:33:25.926Z,2.20
2022-09-15T09:35:53.341Z,1.95
2022-09-15T09:38:28.807Z,2.00
2022-09-15T09:40:59.946Z,2.38
2022-09-15T09:43:30.074Z,1.85
2022-09-15T09:45:57.363Z,2.15
2022-09-15T09:48:27.229Z,2.25
2022-09-15T09:50:55.375Z,2.00
2022-09-15T09:53:31.211Z,2.30
2022-09-15T09:56:27.828Z,2.30
2022-09-15T09:58:55.206Z,1.98
2022-09-15T10:01:25.732Z,1.90
2022-09-15T10:04:19.143Z,2.50
2022-09-15T10:06:46.591Z,1.98
2022-09-15T10:09:18.298Z,2.10
2022-09-15T10:11:51.549Z,3.47
2022-09-15T10:14:22.938Z,2.30
2022-09-15T10:17:17.713Z,1.85
2022-09-15T10:19:55.012Z,2.30
2022-09-15T10:22:34.632Z,2.40
2022-09-15T10:25:04.874Z,1.85
2022-09-15T10:27:36.740Z,2.13
2022-09-15T10:30:12.817Z,2.30
2022-09-15T10:32:40.531Z,2.13
2022-09-15T10:35:18.714Z,1.92
2022-09-15T10:38:06.801Z,2.00
2022-09-15T10:40:55.070Z,2.38
2022-09-15T10:43:37.513Z,2.22
2022-09-15T10:46:13.361Z,2.30
2022-09-15T10:49:06.196Z,2.72
2022-09-15T10:51:43.259Z,2.65
2022-09-15T10:54:41.264Z,2.80
2022-09-15T10:57:35.460Z,3.20
2022-09-15T11:00:22.452Z,3.00
2022-09-15T11:03:18.244Z,3.05
2022-09-15T11:06:17.738Z,2.65
2022-09-15T11:09:21.614Z,3.15
2022-09-15T11:12:16.723Z,2.72
2022-09-15T11:14:50.468Z,2.95
2022-09-15T11:17:41.179Z,2.95
2022-09-15T11:20:39.319Z,2.90
2022-09-15T11:23:12.175Z,2.67
2022-09-15T11:25:45.550Z,2.75
2022-09-15T11:28:25.884Z,2.80
2022-09-15T11:31:21.232Z,2.65
2022-09-15T11:33:59.677Z,2.80
2022-09-15T11:36:58.784Z,2.67
2022-09-15T11:39:36.358Z,2.80
2022-09-15T11:42:18.236Z,2.33
2022-09-15T11:44:47.505Z,3.05
2022-09-15T11:47:22.326Z,2.88
2022-09-15T11:50:03.526Z,2.85
2022-09-15T11:53:01.018Z,2.75
2022-09-15T11:55:41.649Z,2.90
2022-09-15T11:58:21.990Z,2.80
2022-09-15T12:01:07.590Z,2.80
2022-09-15T12:04:01.944Z,2.45
2022-09-15T12:06:40.941Z,3.50
2022-09-15T12:09:16.451Z,3.03
2022-09-15T12:11:49.328Z,2.92
2022-09-15T12:14:44.578Z,3.05
2022-09-15T12:17:40.282Z,2.83
2022-09-15T12:20:18.886Z,2.80
2022-09-15T12:23:00.696Z,2.83
2022-09-15T12:25:50.405Z,3.00
2022-09-15T12:28:23.913Z,3.17
2022-09-15T12:31:12.617Z,3.25
2022-09-15T12:34:00.538Z,2.97
2022-09-15T12:36:34.711Z,2.70
2022-09-15T12:39:04.785Z,2.60
2022-09-15T12:41:32.832Z,2.60
2022-09-15T12:44:35.964Z,2.75
2022-09-15T12:47:05.664Z,3.08
2022-09-15T12:49:36.981Z,2.65
2022-09-15T12:52:06.545Z,3.17
2022-09-15T12:54:35.981Z,2.80
2022-09-15T12:57:03.948Z,3.13
2022-09-15T12:59:30.812Z,2.90
2022-09-15T13:01:57.925Z,2.83
2022-09-15T13:04:43.646Z,3.05
2022-09-15T13:07:16.311Z,2.65
2022-09-15T13:09:46.031Z,2.67
2022-09-15T13:12:17.898Z,2.60
2022-09-15T13:14:50.121Z,2.90
2022-09-15T13:17:24.961Z,2.67
2022-09-15T13:19:56.564Z,2.80
2022-09-15T13:22:30.360Z,3.17
2022-09-15T13:25:06.555Z,2.78
2022-09-15T13:27:56.759Z,2.60
2022-09-15T13:30:23.547Z,2.80
2022-09-15T13:33:01.940Z,2.70
2022-09-15T13:35:44.113Z,2.70
2022-09-15T13:38:31.381Z,2.83
2022-09-15T13:41:36.690Z,2.38
2022-09-15T13:44:33.019Z,3.05
2022-09-15T13:47:18.088Z,2.70
2022-09-15T13:50:09.346Z,2.45
2022-09-15T13:52:49.603Z,3.00
2022-09-15T13:55:21.674Z,3.10
2022-09-15T14:00:51.836Z,2.47
2022-09-15T14:03:39.095Z,3.10
2022-09-15T14:06:36.481Z,3.00
2022-09-15T14:09:14.970Z,2.92
2022-09-15T14:11:43.969Z,2.72
2022-09-15T14:14:40.348Z,3.60
2022-09-15T14:17:22.650Z,3.00
2022-09-15T14:19:53.524Z,2.80
2022-09-15T14:22:20.482Z,2.78
2022-09-15T14:24:47.748Z,2.90
2022-09-15T14:27:22.157Z,2.80
2022-09-15T14:29:51.206Z,2.70
2022-09-15T14:32:18.295Z,2.88
2022-09-15T14:34:45.841Z,2.70
2022-09-15T14:37:24.069Z,3.00
2022-09-15T14:39:58.869Z,3.00
2022-09-15T14:42:31.005Z,2.85
2022-09-15T14:48:01.834Z,2.75
2022-09-15T14:50:33.158Z,3.00
2022-09-15T14:53:18.343Z,2.78
2022-09-15T14:55:52.667Z,3.40
2022-09-15T14:58:29.522Z,3.30
2022-09-15T15:01:15.749Z,3.35
2022-09-15T15:03:45.662Z,2.90
2022-09-15T15:06:50.642Z,3.22
2022-09-15T17:42:40.939Z,5.23
2022-09-15T17:45:20.570Z,4.75
2022-09-15T17:47:48.382Z,5.32
2022-09-15T17:50:18.150Z,5.18
2022-09-15T17:52:45.412Z,5.40
2022-09-15T17:55:16.971Z,6.05
2022-09-15T17:57:44.237Z,5.28
2022-09-15T18:00:13.604Z,5.60
2022-09-15T18:02:45.922Z,5.47
2022-09-15T18:05:28.705Z,5.47
2022-09-15T18:07:57.863Z,5.40
2022-09-15T18:10:25.912Z,5.80
2022-09-15T18:12:55.652Z,5.50
2022-09-15T18:15:28.210Z,5.55
2022-09-15T18:18:02.785Z,5.65
2022-09-15T18:20:32.098Z,5.35
2022-09-15T18:23:00.318Z,5.28
2022-09-15T18:25:33.740Z,5.55
2022-09-15T18:28:01.905Z,5.88
2022-09-15T18:30:36.615Z,6.18
2022-09-15T18:33:03.928Z,5.50
2022-09-15T18:35:31.248Z,5.80
2022-09-15T18:37:59.566Z,5.47
2022-09-15T18:40:27.869Z,5.60
2022-09-15T18:42:56.670Z,5.63
2022-09-15T18:45:23.729Z,5.88
2022-09-15T18:47:51.771Z,6.00
2022-09-15T18:50:21.090Z,6.10
2022-09-15T18:52:48.758Z,5.78
2022-09-15T18:55:19.001Z,6.07
2022-09-15T18:57:46.403Z,6.47
2022-09-15T19:00:16.359Z,6.10
2022-09-15T19:02:44.006Z,5.95
2022-09-15T19:05:11.696Z,6.03
2022-09-15T19:07:39.137Z,6.18
2022-09-15T19:10:07.442Z,6.82
2022-09-15T19:12:36.499Z,6.22
2022-09-15T19:15:10.768Z,6.30
2022-09-15T19:17:39.552Z,6.60
2022-09-15T19:20:08.538Z,6.25
2022-09-15T19:22:36.055Z,6.53
2022-09-15T19:25:03.808Z,6.35
2022-09-15T19:27:30.765Z,6.47
2022-09-15T19:29:57.521Z,6.00
2022-09-15T19:32:24.760Z,5.80
2022-09-15T19:34:51.627Z,6.60
2022-09-15T19:37:20.830Z,6.43
2022-09-15T19:39:48.671Z,6.15
2022-09-15T19:44:47.999Z,5.78
2022-09-15T19:47:14.991Z,5.57
2022-09-15T19:49:41.765Z,6.50
2022-09-15T19:52:08.771Z,6.22
2022-09-15T19:54:35.677Z,5.90
2022-09-15T19:57:02.496Z,6.45
2022-09-15T19:59:31.657Z,6.18
2022-09-15T20:02:00.273Z,5.95
2022-09-15T20:07:13.303Z,6.00
2022-09-15T20:09:43.190Z,6.03
2022-09-15T20:12:11.955Z,6.05
2022-09-15T20:14:39.753Z,6.10
2022-09-15T20:17:06.995Z,6.40
2022-09-15T20:19:34.675Z,6.15
2022-09-15T20:22:01.874Z,6.55
2022-09-15T20:24:29.677Z,6.43
2022-09-15T20:26:58.789Z,6.55
2022-09-15T20:29:26.055Z,6.55
2022-09-15T20:31:53.547Z,6.18
2022-09-15T20:34:20.680Z,6.82
2022-09-15T20:36:48.135Z,6.65
2022-09-15T20:39:16.721Z,6.80
2022-09-15T20:41:47.519Z,7.07
2022-09-15T20:44:17.955Z,6.40
2022-09-15T20:46:47.636Z,6.65
2022-09-15T20:49:15.229Z,6.72
2022-09-15T20:51:42.697Z,6.43
2022-09-15T20:54:11.387Z,6.65
2022-09-15T20:56:38.792Z,6.72
2022-09-15T20:59:08.003Z,6.53
2022-09-15T21:01:37.628Z,6.20
2022-09-15T21:04:06.687Z,6.25
2022-09-15T21:06:34.610Z,6.40
2022-09-15T21:09:02.283Z,6.78
2022-09-15T21:11:30.567Z,7.00
2022-09-15T21:13:58.803Z,6.80
2022-09-15T21:16:28.215Z,6.15
2022-09-15T21:18:57.667Z,6.47
2022-09-15T21:21:30.262Z,6.80
2022-09-15T21:24:06.135Z,6.30
2022-09-15T21:26:57.561Z,6.50
2022-09-15T21:29:25.437Z,6.78
